Time;durP1;ratioP1;P1;durP2;ratioP2;P2;SDS_P1;SDS_P2;PMS_P1;PMS_P2;Temp;Humidity;BMP_temperature;BMP_pressure;BME280_temperature;BME280_humidity;BME280_pressure;Samples;Min_cycle;Max_cycle;Signal;HPM_P1;HPM_P2
2022/03/02 00:00:23;;;;;;;21.80;7.25;;;;;;;15.27;43.47;102253.38;4939897;29;20477;-84
2022/03/02 00:02:48;;;;;;;29.67;10.63;;;;;;;15.26;43.16;102245.38;4939476;29;20050;-85
2022/03/02 00:05:14;;;;;;;19.48;6.25;;;;;;;15.17;43.32;102248.06;4939574;29;20035;-84
2022/03/02 00:07:41;;;;;;;28.15;7.85;;;;;;;15.37;43.16;102229.47;4939566;29;20408;-85
2022/03/02 00:10:06;;;;;;;26.48;8.90;;;;;;;15.32;43.44;102230.38;4956645;29;20389;-85
2022/03/02 00:12:33;;;;;;;27.45;7.40;;;;;;;15.33;43.66;102233.97;4939161;29;20035;-86
2022/03/02 00:14:59;;;;;;;28.85;8.52;;;;;;;15.18;43.95;102218.56;4956322;29;20118;-84
2022/03/02 00:17:25;;;;;;;21.23;7.40;;;;;;;15.12;43.85;102209.63;4956318;29;20151;-84
2022/03/02 00:19:51;;;;;;;22.35;7.18;;;;;;;15.24;43.35;102204.41;4938950;29;20073;-84
2022/03/02 00:22:18;;;;;;;27.30;8.90;;;;;;;15.47;43.21;102205.25;4956317;29;20063;-85
2022/03/02 00:24:50;;;;;;;30.38;7.82;;;;;;;15.06;43.91;102196.28;4939090;29;20027;-84
2022/03/02 00:27:17;;;;;;;24.55;8.18;;;;;;;14.70;44.75;102189.56;4938906;28;20549;-85
2022/03/02 00:29:43;;;;;;;25.33;8.40;;;;;;;14.91;44.27;102187.22;4938884;29;20122;-84
2022/03/02 00:32:08;;;;;;;21.63;8.57;;;;;;;14.92;44.14;102174.28;4956229;29;20182;-85
2022/03/02 00:34:34;;;;;;;24.95;8.95;;;;;;;15.10;44.00;102161.50;4938918;29;20031;-84
2022/03/02 00:36:59;;;;;;;25.90;8.23;;;;;;;15.23;43.56;102160.66;4943621;29;20051;-84
2022/03/02 00:39:25;;;;;;;28.58;7.65;;;;;;;15.06;44.04;102157.75;4954720;29;20121;-84
2022/03/02 00:41:51;;;;;;;31.55;10.15;;;;;;;15.12;44.28;102151.00;4954697;29;20024;-84
2022/03/02 00:44:17;;;;;;;27.63;8.38;;;;;;;15.04;44.36;102155.31;4954657;29;20028;-84
2022/03/02 00:46:43;;;;;;;32.95;8.85;;;;;;;15.03;44.32;102153.66;4954639;29;20050;-85
2022/03/02 00:49:09;;;;;;;32.58;9.40;;;;;;;14.90;45.02;102143.50;4955859;28;20035;-85
2022/03/02 00:51:34;;;;;;;30.63;9.18;;;;;;;14.86;44.87;102143.28;4954517;29;20486;-84
2022/03/02 00:54:01;;;;;;;31.60;8.55;;;;;;;15.06;44.53;102136.53;4954495;29;20039;-84
2022/03/02 00:56:26;;;;;;;22.13;8.02;;;;;;;14.82;45.04;102131.28;4954270;29;20035;-86
2022/03/02 00:58:52;;;;;;;23.40;7.72;;;;;;;14.94;44.81;102120.53;4955730;28;20580;-85
2022/03/02 01:01:18;;;;;;;28.00;8.20;;;;;;;14.93;44.90;102120.84;4954267;29;20089;-84
2022/03/02 01:03:43;;;;;;;25.75;7.97;;;;;;;14.65;45.45;102117.31;4954354;29;20122;-84
2022/03/02 01:06:10;;;;;;;26.42;7.78;;;;;;;15.16;44.07;102105.19;4954355;29;20496;-85
2022/03/02 01:08:35;;;;;;;29.05;8.68;;;;;;;15.01;44.49;102122.06;4954028;29;20094;-85
2022/03/02 01:11:02;;;;;;;24.60;8.27;;;;;;;15.05;44.24;102112.06;4954158;29;20426;-85
2022/03/02 01:13:28;;;;;;;29.75;8.55;;;;;;;14.90;44.75;102116.78;4954276;29;20394;-85
2022/03/02 01:15:54;;;;;;;29.88;9.43;;;;;;;15.05;44.28;102109.31;4954046;29;20218;-84
2022/03/02 01:18:20;;;;;;;34.20;9.38;;;;;;;14.92;44.40;102108.22;4954139;29;20023;-85
2022/03/02 01:20:45;;;;;;;30.70;10.15;;;;;;;14.97;44.61;102111.69;4955395;28;20054;-86
2022/03/02 01:23:11;;;;;;;21.88;7.32;;;;;;;14.94;44.78;102097.72;4954058;28;20028;-85
2022/03/02 01:25:37;;;;;;;32.47;8.25;;;;;;;15.18;44.47;102100.19;4953966;29;20527;-85
2022/03/02 01:28:03;;;;;;;33.42;8.45;;;;;;;15.21;44.50;102094.06;4953984;29;20134;-85
2022/03/02 01:30:29;;;;;;;22.67;8.55;;;;;;;15.31;44.58;102099.34;4953995;29;20121;-85
2022/03/02 01:32:55;;;;;;;34.92;10.93;;;;;;;15.18;44.65;102091.94;4953833;29;20038;-85
2022/03/02 01:35:21;;;;;;;28.50;9.63;;;;;;;15.37;44.30;102087.06;4953746;29;20036;-85
2022/03/02 01:37:46;;;;;;;21.80;7.40;;;;;;;15.04;45.05;102088.41;4953361;29;20066;-84
2022/03/02 01:40:12;;;;;;;32.03;7.75;;;;;;;15.05;45.21;102090.06;4953083;29;20035;-84
2022/03/02 01:42:42;;;;;;;23.25;7.90;;;;;;;15.22;44.89;102074.50;4953758;29;20035;-85
2022/03/02 01:45:12;;;;;;;30.00;8.25;;;;;;;15.31;44.53;102070.97;4953659;29;20406;-83
2022/03/02 01:47:38;;;;;;;25.70;8.90;;;;;;;15.51;44.11;102060.28;4955046;28;20031;-84
2022/03/02 01:50:09;;;;;;;33.67;9.10;;;;;;;15.42;44.23;102051.16;4953749;29;20027;-85
2022/03/02 01:52:35;;;;;;;27.92;8.60;;;;;;;15.67;44.03;102055.22;4953774;29;20042;-85
2022/03/02 01:55:01;;;;;;;34.38;8.73;;;;;;;15.25;44.55;102048.25;4953684;29;20121;-85
2022/03/02 01:57:27;;;;;;;28.75;8.57;;;;;;;15.64;43.64;102046.75;4953606;29;20558;-84
2022/03/02 01:59:54;;;;;;;29.70;10.23;;;;;;;15.53;43.87;102035.97;4953670;29;20031;-84
2022/03/02 02:02:19;;;;;;;23.65;7.57;;;;;;;15.19;44.45;102030.25;4953700;28;20035;-85
2022/03/02 02:04:45;;;;;;;24.17;7.82;;;;;;;15.09;44.46;102020.28;4953522;29;20393;-85
2022/03/02 02:07:11;;;;;;;21.77;7.28;;;;;;;15.26;44.36;102014.09;4953640;29;20031;-83
2022/03/02 02:09:37;;;;;;;21.15;6.18;;;;;;;15.18;44.40;102004.63;4953603;29;20512;-85
2022/03/02 02:12:03;;;;;;;19.80;7.68;;;;;;;15.22;44.44;101996.59;4953699;29;20027;-86
2022/03/02 02:14:28;;;;;;;22.63;7.53;;;;;;;15.13;44.74;101988.25;4953385;29;20027;-85
2022/03/02 02:16:54;;;;;;;20.83;6.63;;;;;;;15.07;44.90;101975.75;4953458;29;20027;-85
2022/03/02 02:19:20;;;;;;;29.42;8.68;;;;;;;15.21;44.42;101975.69;4953652;29;20023;-84
2022/03/02 02:21:48;;;;;;;24.20;8.43;;;;;;;15.33;44.33;101964.06;4953475;29;20114;-84
2022/03/02 02:24:15;;;;;;;27.02;6.13;;;;;;;15.11;44.70;101957.47;4953425;29;20050;-85
2022/03/02 02:26:41;;;;;;;19.17;6.82;;;;;;;15.18;44.91;101957.03;4953267;29;20035;-85
2022/03/02 02:29:06;;;;;;;24.63;8.32;;;;;;;15.11;45.15;101949.19;4953317;29;20497;-84
2022/03/02 02:31:32;;;;;;;20.20;7.40;;;;;;;15.10;44.90;101933.00;4953355;29;20035;-85
2022/03/02 02:33:58;;;;;;;30.30;7.88;;;;;;;15.17;44.97;101938.88;4953389;29;20397;-85
2022/03/02 02:36:25;;;;;;;28.73;7.68;;;;;;;14.99;45.51;101930.53;4952931;29;20061;-85
2022/03/02 02:38:51;;;;;;;25.70;8.13;;;;;;;15.37;44.55;101934.78;4954803;28;20034;-85
2022/03/02 02:41:18;;;;;;;31.50;8.30;;;;;;;15.17;44.97;101922.38;4953472;29;20019;-84
2022/03/02 02:43:44;;;;;;;23.75;7.93;;;;;;;15.11;45.46;101926.38;4953422;28;20046;-84
2022/03/02 02:54:44;;;;;;;25.35;8.38;;;;;;;15.32;45.17;101924.72;4958324;28;20505;-85
2022/03/02 02:57:10;;;;;;;26.08;7.25;;;;;;;15.14;45.44;101912.00;4956699;29;20098;-84
2022/03/02 02:59:36;;;;;;;32.40;7.82;;;;;;;15.28;45.26;101912.72;4957893;28;20492;-85
2022/03/02 03:02:03;;;;;;;30.13;8.25;;;;;;;15.44;45.18;101905.66;4956603;29;20035;-86
2022/03/02 03:04:28;;;;;;;28.92;7.97;;;;;;;15.55;44.52;101907.00;4956645;29;20122;-85
2022/03/02 03:06:54;;;;;;;29.75;7.65;;;;;;;15.36;45.20;101903.69;4957875;28;20118;-84
2022/03/02 03:09:20;;;;;;;22.08;8.35;;;;;;;15.52;44.84;101907.66;4956260;29;20082;-84
2022/03/02 03:11:45;;;;;;;24.33;8.60;;;;;;;15.34;45.34;101905.13;4956466;29;20035;-85
2022/03/02 03:14:13;;;;;;;33.28;9.00;;;;;;;15.54;44.52;101902.63;4956341;29;20438;-85
2022/03/02 03:16:40;;;;;;;19.77;6.72;;;;;;;15.55;44.79;101901.47;4957714;28;20562;-85
2022/03/02 03:19:06;;;;;;;31.08;8.73;;;;;;;15.52;44.70;101899.38;4956565;29;20027;-84
2022/03/02 03:21:33;;;;;;;32.80;7.93;;;;;;;15.67;44.74;101898.16;4957477;28;20062;-85
2022/03/02 03:23:59;;;;;;;24.52;8.20;;;;;;;15.89;44.26;101902.78;4957511;28;20066;-85
2022/03/02 03:26:25;;;;;;;30.67;9.15;;;;;;;15.93;44.13;101900.16;4956438;29;20387;-85
2022/03/02 03:28:51;;;;;;;27.13;7.93;;;;;;;15.85;44.41;101903.72;4956073;29;20035;-84
2022/03/02 03:31:17;;;;;;;29.77;8.80;;;;;;;16.09;43.49;101904.09;4956210;29;20070;-84
2022/03/02 03:33:43;;;;;;;26.95;7.60;;;;;;;15.91;44.11;101892.22;4956026;29;20636;-84
2022/03/02 03:36:09;;;;;;;19.13;7.68;;;;;;;15.75;44.82;101894.63;4955910;29;20073;-85
2022/03/02 03:38:35;;;;;;;36.03;7.97;;;;;;;16.11;43.82;101888.06;4957354;29;20575;-84
2022/03/02 03:41:01;;;;;;;24.45;8.75;;;;;;;15.90;43.97;101884.28;4940039;29;20081;-86
2022/03/02 03:43:26;;;;;;;32.10;9.80;;;;;;;15.74;44.66;101887.50;4940043;29;20027;-84
2022/03/02 03:45:52;;;;;;;30.55;8.48;;;;;;;16.05;43.88;101883.81;4939909;29;20075;-85
2022/03/02 03:48:18;;;;;;;30.17;8.90;;;;;;;16.09;43.79;101880.09;4939852;29;20020;-85
2022/03/02 03:50:44;;;;;;;26.55;9.38;;;;;;;16.01;44.09;101874.56;4939810;29;20042;-85
2022/03/02 03:53:13;;;;;;;28.80;7.93;;;;;;;15.86;44.47;101875.03;4939819;29;20023;-85
2022/03/02 03:55:39;;;;;;;34.73;9.47;;;;;;;15.89;44.81;101871.66;4939774;29;20162;-85
2022/03/02 03:58:05;;;;;;;25.38;7.60;;;;;;;15.86;44.74;101867.56;4956961;29;20031;-84
2022/03/02 04:00:32;;;;;;;26.17;9.25;;;;;;;15.92;44.46;101863.53;4939577;29;20121;-85
2022/03/02 04:02:57;;;;;;;25.73;8.30;;;;;;;16.13;44.05;101849.13;4939012;29;20031;-86
2022/03/02 04:05:23;;;;;;;32.00;7.65;;;;;;;16.04;44.13;101847.19;4939667;29;20023;-85
2022/03/02 04:07:49;;;;;;;34.97;8.32;;;;;;;16.06;44.08;101839.38;4939541;29;20435;-85
2022/03/02 04:10:17;;;;;;;26.65;8.73;;;;;;;16.06;44.29;101833.88;4956613;29;20047;-84
2022/03/02 04:12:44;;;;;;;28.33;8.85;;;;;;;16.09;44.13;101827.69;4939279;29;20034;-84
2022/03/02 04:15:11;;;;;;;40.90;11.02;;;;;;;16.18;43.84;101835.19;4939344;29;20114;-84
2022/03/02 04:17:36;;;;;;;28.00;9.07;;;;;;;16.14;43.90;101829.50;4939381;29;20086;-85
2022/03/02 04:20:06;;;;;;;29.27;9.43;;;;;;;15.89;44.34;101831.09;4939181;29;20031;-85
2022/03/02 04:22:32;;;;;;;32.45;8.48;;;;;;;16.17;43.78;101828.88;4956421;29;20027;-85
2022/03/02 04:24:58;;;;;;;24.15;7.95;;;;;;;15.91;44.68;101823.31;4939124;29;20027;-85
2022/03/02 04:27:24;;;;;;;26.83;8.68;;;;;;;16.04;44.31;101818.81;4939067;29;20086;-85
2022/03/02 04:29:50;;;;;;;26.33;7.13;;;;;;;16.20;43.98;101824.63;4956037;28;20043;-84
2022/03/02 04:32:16;;;;;;;27.25;8.68;;;;;;;15.81;44.91;101815.38;4938833;29;20106;-86
2022/03/02 04:34:41;;;;;;;28.85;8.63;;;;;;;15.82;44.94;101808.72;4938887;29;20031;-85
2022/03/02 04:37:07;;;;;;;22.63;8.38;;;;;;;16.13;44.39;101805.00;4944549;29;20502;-85
2022/03/02 04:39:33;;;;;;;23.27;6.90;;;;;;;16.06;44.40;101803.56;4954991;28;20039;-85
2022/03/02 04:41:58;;;;;;;21.63;7.60;;;;;;;15.94;44.87;101800.63;4955022;29;20066;-84
2022/03/02 04:44:24;;;;;;;27.92;8.35;;;;;;;15.59;45.75;101794.25;4954860;29;20133;-85
2022/03/02 04:46:51;;;;;;;32.35;8.40;;;;;;;15.82;45.02;101789.44;4954896;29;20031;-85
2022/03/02 04:49:20;;;;;;;21.95;7.68;;;;;;;15.65;45.81;101792.19;4954957;29;20055;-84
2022/03/02 04:51:47;;;;;;;28.58;8.93;;;;;;;15.87;45.10;101791.22;4954670;29;20504;-84
2022/03/02 04:55:05;;;;;;;32.50;9.00;;;;;;;15.94;45.01;101791.53;4954522;29;20035;-86
2022/03/02 04:57:01;;;;;;;25.02;7.60;;;;;;;15.94;44.79;101792.34;4955792;28;20027;-85
2022/03/02 04:59:27;;;;;;;24.85;7.43;;;;;;;15.75;45.50;101783.59;4954761;29;20035;-84
2022/03/02 05:01:53;;;;;;;32.35;7.30;;;;;;;15.73;45.40;101781.16;4954352;29;20050;-85
2022/03/02 05:04:19;;;;;;;26.95;8.43;;;;;;;15.75;45.32;101781.66;4954439;29;20482;-85
2022/03/02 05:06:44;;;;;;;24.40;8.05;;;;;;;16.05;44.88;101781.81;4954459;29;20058;-85
2022/03/02 05:09:10;;;;;;;30.70;7.95;;;;;;;16.23;44.59;101772.41;4954498;29;20035;-85
2022/03/02 05:11:35;;;;;;;25.55;8.18;;;;;;;16.01;44.89;101783.59;4955563;28;20487;-85
2022/03/02 05:14:01;;;;;;;28.98;8.07;;;;;;;15.97;44.82;101766.91;4953819;28;20042;-85
2022/03/02 05:16:27;;;;;;;36.25;9.68;;;;;;;16.10;44.65;101767.88;4953942;29;20051;-84
2022/03/02 05:18:52;;;;;;;26.75;8.25;;;;;;;16.04;44.90;101763.66;4954312;29;20058;-84
2022/03/02 05:21:18;;;;;;;31.67;9.38;;;;;;;16.22;44.55;101758.94;4954610;28;20027;-85
2022/03/02 05:23:43;;;;;;;35.70;10.15;;;;;;;16.25;44.54;101747.28;4954049;28;20035;-85
2022/03/02 05:26:09;;;;;;;23.95;8.55;;;;;;;16.06;44.71;101756.69;4954202;28;20091;-85
2022/03/02 05:28:36;;;;;;;30.35;8.88;;;;;;;16.05;44.86;101748.75;4954145;28;20027;-85
2022/03/02 05:31:02;;;;;;;23.23;8.63;;;;;;;15.89;45.26;101742.91;4954058;28;20446;-85
2022/03/02 05:33:28;;;;;;;30.48;8.15;;;;;;;15.94;45.20;101741.94;4953989;29;20050;-85
2022/03/02 05:35:53;;;;;;;31.45;10.15;;;;;;;16.40;44.26;101738.47;4954000;29;20118;-84
2022/03/02 05:38:19;;;;;;;30.83;7.90;;;;;;;16.17;44.85;101737.88;4953924;28;20035;-85
2022/03/02 05:40:45;;;;;;;28.27;10.40;;;;;;;16.14;45.00;101738.50;4954045;29;20093;-85
2022/03/02 05:43:10;;;;;;;28.33;8.60;;;;;;;16.13;44.94;101736.09;4953763;29;20038;-85
2022/03/02 05:45:36;;;;;;;35.30;9.18;;;;;;;16.27;44.69;101728.44;4954998;28;20031;-84
2022/03/02 05:48:02;;;;;;;26.15;7.68;;;;;;;16.02;45.36;101724.56;4953775;29;20466;-86
2022/03/02 05:50:27;;;;;;;23.55;8.20;;;;;;;16.22;44.82;101717.56;4955152;28;20028;-85
2022/03/02 05:52:53;;;;;;;30.08;9.20;;;;;;;16.25;44.77;101720.50;4955123;28;20030;-85
2022/03/02 05:55:19;;;;;;;28.77;9.05;;;;;;;16.23;44.90;101710.91;4954983;28;20609;-86
2022/03/02 05:57:44;;;;;;;34.78;9.50;;;;;;;16.19;45.19;101708.03;4955162;28;20094;-85
2022/03/02 06:00:10;;;;;;;21.80;9.05;;;;;;;16.25;44.72;101708.66;4953955;28;20031;-84
2022/03/02 06:02:36;;;;;;;34.20;9.35;;;;;;;16.32;44.74;101693.25;4953726;29;20038;-85
2022/03/02 06:05:02;;;;;;;29.45;9.63;;;;;;;16.39;44.93;101706.50;4953770;28;20537;-85
2022/03/02 06:07:27;;;;;;;27.88;9.57;;;;;;;16.28;44.92;101706.03;4953667;28;20126;-85
2022/03/02 06:09:53;;;;;;;30.38;9.57;;;;;;;16.40;44.61;101702.63;4953697;28;20063;-84
2022/03/02 06:12:19;;;;;;;36.15;11.43;;;;;;;16.13;45.59;101705.75;4954823;28;20031;-86
2022/03/02 06:14:45;;;;;;;33.95;10.35;;;;;;;16.33;44.74;101696.81;4953800;28;20035;-86
2022/03/02 06:17:11;;;;;;;37.72;10.35;;;;;;;16.34;45.28;101695.66;4953453;28;20393;-86
2022/03/02 06:19:37;;;;;;;30.27;11.70;;;;;;;16.21;45.37;101688.38;4953639;28;20031;-85
2022/03/02 06:22:04;;;;;;;26.95;10.15;;;;;;;16.21;45.43;101689.19;4953596;28;20031;-85
2022/03/02 06:24:33;;;;;;;25.60;12.18;;;;;;;16.32;45.02;101686.88;4953453;28;20035;-85
2022/03/02 06:26:59;;;;;;;31.70;9.45;;;;;;;16.23;45.52;101681.41;4956322;28;20042;-85
2022/03/02 06:29:24;;;;;;;29.42;9.00;;;;;;;16.39;44.85;101678.91;4957425;28;20454;-87
2022/03/02 06:31:50;;;;;;;37.00;10.25;;;;;;;16.50;44.39;101676.63;4957268;28;20521;-87
2022/03/02 06:34:17;;;;;;;28.80;10.48;;;;;;;16.33;45.15;101683.00;4957241;28;20429;-88
2022/03/02 06:36:43;;;;;;;25.70;8.23;;;;;;;16.49;44.74;101678.56;4956957;28;20051;-85
2022/03/02 06:39:08;;;;;;;28.65;8.68;;;;;;;16.40;45.00;101675.03;4957015;29;20066;-87
2022/03/02 06:41:46;;;;;;;32.67;9.45;;;;;;;16.16;45.68;101669.25;4956701;28;20482;-86
2022/03/02 06:44:25;;;;;;;19.77;7.68;;;;;;;16.27;45.37;101665.00;4957170;29;20058;-86
2022/03/02 06:47:09;;;;;;;32.90;9.83;;;;;;;16.39;44.99;101656.84;4956892;29;20038;-87
2022/03/02 06:50:04;;;;;;;35.13;10.00;;;;;;;16.28;45.36;101641.81;4956998;29;20046;-86
2022/03/02 06:52:39;;;;;;;23.35;7.43;;;;;;;16.20;45.45;101645.41;4957087;28;20118;-87
2022/03/02 06:55:11;;;;;;;23.45;7.93;;;;;;;16.28;45.40;101641.81;4956957;29;20027;-84
2022/03/02 06:57:38;;;;;;;24.65;7.30;;;;;;;16.34;44.84;101640.50;4958054;28;20024;-86
2022/03/02 07:00:08;;;;;;;28.92;7.32;;;;;;;16.22;45.64;101643.13;4956650;29;20059;-87
2022/03/02 07:02:39;;;;;;;25.88;6.57;;;;;;;16.45;44.91;101647.25;4956794;28;20031;-86
2022/03/02 07:05:08;;;;;;;26.55;7.90;;;;;;;16.37;45.37;101639.81;4956573;29;20027;-86
2022/03/02 07:07:34;;;;;;;20.85;8.20;;;;;;;16.22;45.76;101640.38;4956820;29;20027;-87
2022/03/02 07:10:00;;;;;;;15.95;7.45;;;;;;;16.25;45.51;101634.22;4957119;29;20023;-86
2022/03/02 07:12:27;;;;;;;23.50;7.22;;;;;;;16.28;45.55;101636.28;4956754;29;20046;-87
2022/03/02 07:14:54;;;;;;;24.60;6.97;;;;;;;16.34;45.54;101643.25;4956932;29;20418;-87
2022/03/02 07:17:21;;;;;;;39.13;7.60;;;;;;;16.33;45.66;101641.66;4953662;28;20032;-86
2022/03/02 07:19:47;;;;;;;26.70;7.32;;;;;;;16.21;46.08;101639.56;4954684;28;20820;-86
2022/03/02 07:22:16;;;;;;;32.05;8.70;;;;;;;16.25;46.05;101628.69;4953759;28;20016;-86
2022/03/02 07:25:07;;;;;;;30.95;8.15;;;;;;;16.30;45.82;101637.56;4955966;28;20035;-86
2022/03/02 07:27:38;;;;;;;38.63;10.88;;;;;;;16.55;45.78;101633.13;4944410;28;20164;-86
2022/03/02 07:30:05;;;;;;;35.58;8.23;;;;;;;16.46;45.67;101626.81;4956179;29;20169;-86
2022/03/02 07:32:41;;;;;;;25.42;7.03;;;;;;;16.23;46.35;101629.00;4956443;29;20031;-87
2022/03/02 07:35:07;;;;;;;26.77;8.10;;;;;;;16.43;46.05;101627.47;4956235;29;20034;-91
2022/03/02 07:37:33;;;;;;;23.83;7.80;;;;;;;16.24;46.70;101627.06;4954567;28;20059;-86
2022/03/02 07:39:59;;;;;;;25.15;7.75;;;;;;;16.47;45.57;101622.09;4956065;29;20498;-87
2022/03/02 07:42:26;;;;;;;18.83;7.03;;;;;;;16.32;46.62;101615.19;4957687;28;20496;-85
2022/03/02 07:44:52;;;;;;;30.58;7.70;;;;;;;16.24;46.64;101614.06;4956028;29;20118;-88
2022/03/02 07:47:19;;;;;;;30.40;7.05;;;;;;;16.23;46.97;101614.41;4955995;29;20031;-85
2022/03/02 07:49:46;;;;;;;29.95;7.65;;;;;;;16.45;46.26;101605.88;4955753;29;20035;-82
2022/03/02 07:52:14;;;;;;;22.50;7.72;;;;;;;16.29;46.82;101593.78;4955670;29;20489;-86
2022/03/02 07:54:41;;;;;;;25.30;6.70;;;;;;;16.19;47.40;101602.44;4955515;29;20489;-82
2022/03/02 07:57:10;;;;;;;24.20;6.93;;;;;;;16.30;46.47;101606.44;4956805;28;20060;-86
2022/03/02 07:59:38;;;;;;;21.42;5.45;;;;;;;16.22;47.17;101604.53;4955583;29;20030;-85
2022/03/02 08:02:06;;;;;;;24.95;7.43;;;;;;;16.43;46.74;101610.94;4956771;28;20027;-85
2022/03/02 08:04:33;;;;;;;25.65;6.13;;;;;;;16.37;46.70;101603.97;4955415;29;20034;-85
2022/03/02 08:06:58;;;;;;;25.58;7.65;;;;;;;16.17;47.30;101599.19;4955709;29;20470;-86
2022/03/02 08:09:24;;;;;;;24.42;5.80;;;;;;;16.38;46.71;101598.13;4952863;28;20038;-86
2022/03/02 08:11:50;;;;;;;35.55;9.15;;;;;;;16.64;46.04;101599.97;4954753;28;20058;-86
2022/03/02 08:14:18;;;;;;;28.17;5.40;;;;;;;16.38;46.96;101594.56;4955134;29;20031;-85
2022/03/02 08:16:46;;;;;;;23.88;6.10;;;;;;;16.44;46.71;101589.66;4955511;29;20397;-86
2022/03/02 08:19:11;;;;;;;18.17;4.97;;;;;;;16.26;47.42;101589.75;4955172;29;20035;-85
2022/03/02 08:21:41;;;;;;;19.30;4.32;;;;;;;16.35;46.94;101584.19;4955629;29;20094;-86
2022/03/02 08:24:08;;;;;;;;;;;;;;;16.18;47.56;101584.28;4955997;29;20038;-86
2022/03/02 08:26:37;;;;;;;32.03;7.75;;;;;;;16.51;46.67;101585.25;4954425;29;19918;-86
2022/03/02 08:29:07;;;;;;;28.52;6.28;;;;;;;16.54;46.51;101583.75;4955340;29;20035;-84
2022/03/02 08:31:36;;;;;;;15.13;4.05;;;;;;;16.40;46.93;101580.44;4948720;28;20034;-88
2022/03/02 08:34:03;;;;;;;14.65;5.00;;;;;;;16.15;47.64;101573.88;4941904;28;20490;-87
2022/03/02 08:36:34;;;;;;;22.42;6.18;;;;;;;16.58;46.67;101568.97;4941969;28;20454;-88
2022/03/02 08:39:25;;;;;;;;;;;;;;;16.14;47.61;101573.09;4943741;28;20020;-85
2022/03/02 08:41:52;;;;;;;13.75;4.18;;;;;;;16.36;47.17;101567.31;4938000;28;19923;-88
2022/03/02 08:44:19;;;;;;;21.58;4.97;;;;;;;16.18;47.72;101567.72;4942698;28;20118;-87
2022/03/02 08:46:46;;;;;;;19.63;5.60;;;;;;;16.35;47.38;101564.88;4941738;28;20023;-88
2022/03/02 08:49:17;;;;;;;14.23;5.03;;;;;;;16.57;46.83;101561.03;4942357;28;20039;-85
2022/03/02 08:51:43;;;;;;;26.80;6.57;;;;;;;16.58;46.83;101557.13;4943415;28;20039;-87
2022/03/02 08:54:12;;;;;;;16.67;4.68;;;;;;;16.56;46.80;101557.47;4942492;28;20094;-87
2022/03/02 08:56:40;;;;;;;18.80;4.43;;;;;;;16.77;46.04;101542.91;4941375;28;20034;-87
2022/03/02 08:59:12;;;;;;;34.42;6.07;;;;;;;16.92;45.86;101545.88;4942016;28;20707;-88
2022/03/02 09:01:41;;;;;;;16.48;3.80;;;;;;;16.70;46.36;101545.41;4938376;28;20503;-87
2022/03/02 09:04:10;;;;;;;32.83;6.90;;;;;;;16.91;46.00;101544.28;4942915;28;20030;-87
2022/03/02 09:06:35;;;;;;;17.42;3.25;;;;;;;16.81;46.44;101536.41;4942692;28;20042;-88
2022/03/02 09:09:03;;;;;;;12.85;4.07;;;;;;;16.68;46.63;101526.38;4943157;28;20038;-87
2022/03/02 09:11:28;;;;;;;14.23;4.43;;;;;;;16.72;46.48;101529.34;4944165;28;20138;-87
2022/03/02 09:13:55;;;;;;;22.05;5.43;;;;;;;16.70;46.76;101526.91;4954915;29;20042;-85
2022/03/02 09:16:21;;;;;;;30.88;6.47;;;;;;;16.89;46.20;101526.44;4954575;29;20054;-86
2022/03/02 09:18:48;;;;;;;22.67;6.20;;;;;;;16.77;46.70;101532.69;4954736;29;20485;-86
2022/03/02 09:21:14;;;;;;;19.83;4.75;;;;;;;16.75;46.82;101512.91;4953773;29;20137;-86
2022/03/02 09:23:40;;;;;;;13.93;3.97;;;;;;;16.74;46.48;101525.09;4955827;28;20027;-86
2022/03/02 09:26:17;;;;;;;21.08;5.35;;;;;;;16.56;47.20;101518.06;4944200;28;20517;-85
2022/03/02 09:28:46;;;;;;;22.27;4.47;;;;;;;16.73;46.95;101509.69;4940482;28;20030;-87
2022/03/02 09:31:14;;;;;;;15.98;4.18;;;;;;;16.69;46.89;101513.41;4941960;28;20031;-88
2022/03/02 09:33:40;;;;;;;23.80;5.15;;;;;;;16.85;46.64;101506.16;4940658;28;20035;-84
2022/03/02 09:36:09;;;;;;;22.90;5.07;;;;;;;16.83;46.38;101505.69;4949345;28;20028;-86
2022/03/02 09:38:37;;;;;;;14.73;4.68;;;;;;;16.73;46.83;101506.09;4938507;29;20034;-86
2022/03/02 09:41:09;;;;;;;19.40;5.25;;;;;;;16.73;47.02;101504.16;4939079;28;20042;-86
2022/03/02 09:43:36;;;;;;;26.77;5.47;;;;;;;16.89;46.56;101493.31;4934088;28;20019;-85
2022/03/02 09:46:06;;;;;;;14.32;3.63;;;;;;;16.92;46.12;101495.38;4939484;29;20019;-87
2022/03/02 09:48:40;;;;;;;15.32;3.97;;;;;;;16.71;46.70;101497.38;4938348;29;20047;-86
2022/03/02 09:51:08;;;;;;;15.35;5.72;;;;;;;16.85;46.60;101489.59;4938594;29;20058;-86
2022/03/02 09:53:35;;;;;;;20.90;5.22;;;;;;;16.94;46.34;101481.28;4937298;29;20043;-86
2022/03/02 09:56:06;;;;;;;14.07;3.63;;;;;;;16.76;47.12;101472.31;4938330;29;20122;-87
2022/03/02 09:58:38;;;;;;;19.95;5.68;;;;;;;16.76;46.80;101478.63;4938162;28;20026;-87
2022/03/02 10:01:12;;;;;;;15.70;4.63;;;;;;;17.04;46.32;101478.91;4939115;28;20401;-87
2022/03/02 10:03:45;;;;;;;17.98;4.57;;;;;;;17.03;46.28;101476.47;4943471;29;20027;-86
2022/03/02 10:06:12;;;;;;;17.88;4.63;;;;;;;17.19;45.68;101469.97;4944423;29;20042;-86
2022/03/02 10:08:47;;;;;;;11.13;3.55;;;;;;;16.77;46.60;101460.13;4944560;29;20626;-86
2022/03/02 10:11:18;;;;;;;22.42;4.72;;;;;;;17.01;46.42;101454.72;4944576;29;20032;-86
2022/03/02 10:13:44;;;;;;;17.90;4.13;;;;;;;16.69;47.16;101450.78;4944488;29;20039;-86
2022/03/02 10:16:20;;;;;;;14.18;3.70;;;;;;;16.68;47.46;101442.81;4961805;29;20031;-86
2022/03/02 10:18:55;;;;;;;18.70;3.88;;;;;;;16.54;48.02;101445.81;4944212;29;20469;-87
2022/03/02 10:21:27;;;;;;;14.93;4.47;;;;;;;16.73;47.57;101437.94;4945055;29;20541;-86
2022/03/02 10:23:59;;;;;;;21.63;5.05;;;;;;;16.84;47.14;101441.88;4941579;29;20027;-87
2022/03/02 10:26:28;;;;;;;13.43;4.13;;;;;;;17.01;46.55;101443.69;4944022;29;20062;-85
2022/03/02 10:29:06;;;;;;;26.07;5.77;;;;;;;16.92;47.11;101434.66;4944420;28;20039;-86
2022/03/02 10:32:05;;;;;;;26.27;7.38;;;;;;;17.22;46.17;101442.81;4944609;29;20061;-86
2022/03/02 10:34:34;;;;;;;14.00;4.40;;;;;;;17.24;46.35;101438.59;4944191;29;20126;-87
2022/03/02 10:37:03;;;;;;;23.67;5.00;;;;;;;17.22;46.29;101431.78;4948844;28;20420;-86
2022/03/02 10:39:55;;;;;;;23.95;4.55;;;;;;;17.04;46.90;101431.97;4960417;29;20031;-87
2022/03/02 10:42:28;;;;;;;15.23;4.32;;;;;;;17.22;46.55;101429.81;4960480;28;20082;-85
2022/03/02 10:45:01;;;;;;;16.77;4.57;;;;;;;17.14;47.02;101426.00;4960018;29;20616;-87
2022/03/02 10:47:28;;;;;;;23.27;4.70;;;;;;;17.31;46.14;101416.75;4959950;28;20038;-87
2022/03/02 10:49:56;;;;;;;18.52;5.70;;;;;;;17.36;46.12;101408.22;4959802;29;20047;-86
2022/03/02 10:52:25;;;;;;;15.93;4.88;;;;;;;17.24;46.74;101397.16;4959084;28;20478;-86
2022/03/02 10:54:54;;;;;;;17.15;4.97;;;;;;;17.30;46.58;101412.34;4958143;28;20118;-87
2022/03/02 10:57:25;;;;;;;16.73;4.82;;;;;;;17.26;46.92;101405.09;4960563;29;20035;-87
2022/03/02 10:59:53;;;;;;;16.98;5.07;;;;;;;17.19;47.15;101400.13;4960361;28;20038;-87
2022/03/02 11:02:22;;;;;;;27.85;6.63;;;;;;;17.19;47.09;101394.59;4960254;28;20035;-87
2022/03/02 11:04:48;;;;;;;17.17;4.47;;;;;;;17.30;46.90;101389.44;4960244;29;20027;-87
2022/03/02 11:07:16;;;;;;;22.88;5.05;;;;;;;17.14;47.64;101381.81;4983005;28;20023;-87
2022/03/02 11:09:47;;;;;;;19.48;4.95;;;;;;;17.37;46.90;101373.91;4949915;28;20031;-87
2022/03/02 11:12:14;;;;;;;17.83;4.68;;;;;;;17.27;47.10;101368.84;4959179;28;20034;-88
2022/03/02 11:15:03;;;;;;;30.45;7.03;;;;;;;17.33;47.06;101361.16;4957380;28;20038;-88
2022/03/02 11:17:29;;;;;;;15.98;5.18;;;;;;;17.22;47.40;101357.22;4957554;29;20035;-87
2022/03/02 11:19:56;;;;;;;20.83;5.47;;;;;;;17.31;46.81;101352.41;4957483;29;20382;-87
2022/03/02 11:22:25;;;;;;;16.42;6.05;;;;;;;17.12;47.70;101345.47;4956032;28;20034;-87
2022/03/02 11:24:59;;;;;;;21.33;5.32;;;;;;;16.88;48.33;101351.75;4957071;29;20541;-89
2022/03/02 11:27:27;;;;;;;18.17;5.15;;;;;;;17.14;47.73;101345.13;4958291;28;20023;-86